Time;durP1;ratioP1;P1;durP2;ratioP2;P2;SDS_P1;SDS_P2;PMS_P1;PMS_P2;Temp;Humidity;BMP_temperature;BMP_pressure;BME280_temperature;BME280_humidity;BME280_pressure;Samples;Min_cycle;Max_cycle;Signal;HPM_P1;HPM_P2
2023/06/06 04:00:58;;;;;;;2.60;2.10;;;13.70;99.90;;;;;;5698271;23;20852;-74
2023/06/06 04:03:24;;;;;;;1.53;1.43;;;13.70;99.90;;;;;;4984536;28;20470;-74
2023/06/06 04:05:51;;;;;;;2.80;2.80;;;13.70;99.90;;;;;;4993377;28;20498;-76
2023/06/06 04:08:18;;;;;;;1.73;1.67;;;13.80;99.90;;;;;;4991707;28;20955;-74
2023/06/06 04:10:45;;;;;;;2.47;2.33;;;13.90;99.90;;;;;;4984429;28;20545;-75
2023/06/06 04:13:12;;;;;;;4.17;2.57;;;13.90;99.90;;;;;;4994050;28;20478;-74
2023/06/06 04:15:38;;;;;;;1.80;1.70;;;13.90;99.90;;;;;;4993517;28;20458;-75
2023/06/06 04:18:06;;;;;;;2.33;2.20;;;14.10;99.90;;;;;;4985817;28;20519;-74
2023/06/06 04:20:33;;;;;;;2.43;1.40;;;14.10;99.90;;;;;;4983416;28;20537;-74
2023/06/06 04:23:01;;;;;;;2.90;2.80;;;14.40;99.90;;;;;;4985164;28;20471;-74
2023/06/06 04:25:27;;;;;;;1.53;1.43;;;15.10;99.90;;;;;;4983840;28;22193;-75
2023/06/06 04:27:55;;;;;;;3.13;2.93;;;15.90;99.90;;;;;;4992578;28;20463;-75
2023/06/06 04:30:23;;;;;;;1.60;1.50;;;16.50;99.90;;;;;;4992253;28;20559;-74
2023/06/06 04:32:50;;;;;;;2.73;1.97;;;17.20;99.90;;;;;;4992103;28;20735;-75
2023/06/06 04:35:18;;;;;;;1.33;1.33;;;17.90;99.90;;;;;;4983821;28;20479;-75
2023/06/06 04:37:48;;;;;;;1.30;1.30;;;18.50;99.90;;;;;;4972151;28;20494;-75
2023/06/06 04:40:15;;;;;;;1.63;1.50;;;18.90;99.90;;;;;;4984725;28;20495;-74
2023/06/06 04:42:42;;;;;;;3.57;1.97;;;19.10;99.90;;;;;;4991803;28;20472;-74
2023/06/06 04:45:10;;;;;;;1.43;1.43;;;19.50;99.90;;;;;;4992937;28;20488;-75
2023/06/06 04:47:39;;;;;;;1.60;1.53;;;19.60;99.90;;;;;;4990525;28;20477;-75
2023/06/06 04:50:07;;;;;;;1.77;1.77;;;19.90;99.90;;;;;;4992157;28;20463;-75
2023/06/06 04:52:35;;;;;;;1.50;1.50;;;20.20;99.90;;;;;;4980417;28;20492;-74
2023/06/06 04:55:03;;;;;;;2.13;2.03;;;20.50;99.90;;;;;;4988247;28;20821;-75
2023/06/06 04:57:32;;;;;;;1.87;1.87;;;20.80;99.90;;;;;;4990221;28;20502;-73
2023/06/06 05:00:00;;;;;;;2.83;1.90;;;20.90;99.90;;;;;;4981428;28;20487;-75
2023/06/06 05:02:28;;;;;;;2.23;2.03;;;21.00;99.90;;;;;;4982807;28;20500;-75
2023/06/06 05:04:56;;;;;;;1.07;1.07;;;21.20;99.90;;;;;;4989524;28;20509;-75
2023/06/06 05:07:23;;;;;;;1.63;1.60;;;21.30;99.90;;;;;;4990815;28;20474;-75
2023/06/06 05:09:52;;;;;;;1.40;1.40;;;21.20;99.90;;;;;;4988534;28;20526;-73
2023/06/06 05:12:18;;;;;;;1.63;1.63;;;21.30;99.90;;;;;;4989275;28;20489;-75
2023/06/06 05:14:45;;;;;;;1.90;1.80;;;21.50;99.90;;;;;;4985812;28;20470;-75
2023/06/06 05:17:17;;;;;;;1.23;1.23;;;21.70;99.90;;;;;;4991826;28;20460;-75
2023/06/06 05:19:45;;;;;;;1.40;1.40;;;21.90;99.90;;;;;;4980315;28;20469;-75
2023/06/06 05:22:12;;;;;;;1.60;1.50;;;21.90;99.90;;;;;;4983745;28;20490;-75
2023/06/06 05:24:38;;;;;;;1.93;1.83;;;21.70;99.90;;;;;;4981688;28;20481;-75
2023/06/06 05:27:06;;;;;;;1.80;1.70;;;22.30;99.90;;;;;;4976153;28;20493;-75
2023/06/06 05:29:33;;;;;;;1.13;1.13;;;22.70;99.90;;;;;;4976946;28;20468;-75
2023/06/06 05:32:00;;;;;;;1.60;1.60;;;22.90;99.90;;;;;;4990788;28;20483;-75
2023/06/06 05:34:26;;;;;;;1.10;1.10;;;22.90;99.90;;;;;;4988566;28;20966;-75
2023/06/06 05:36:53;;;;;;;2.17;2.07;;;22.90;99.90;;;;;;4978306;28;20500;-75
2023/06/06 05:39:20;;;;;;;1.40;1.40;;;22.00;99.90;;;;;;4983086;28;20889;-75
2023/06/06 05:41:48;;;;;;;1.20;1.20;;;22.10;99.90;;;;;;4991090;28;20488;-74
2023/06/06 05:44:16;;;;;;;1.63;1.53;;;21.90;99.90;;;;;;4974583;28;20472;-75
2023/06/06 05:46:43;;;;;;;2.10;2.10;;;22.00;99.90;;;;;;4977062;28;20487;-75
2023/06/06 05:49:11;;;;;;;1.60;1.60;;;22.00;99.90;;;;;;4990832;28;20463;-75
2023/06/06 05:51:38;;;;;;;1.53;1.53;;;22.10;99.90;;;;;;4989634;28;20504;-75
2023/06/06 05:54:04;;;;;;;1.60;1.60;;;21.90;99.90;;;;;;4990353;28;20462;-75
2023/06/06 05:56:31;;;;;;;1.90;1.90;;;21.80;99.90;;;;;;4985810;28;20529;-75
2023/06/06 05:58:58;;;;;;;1.47;1.47;;;21.20;99.90;;;;;;4986480;28;20896;-74
2023/06/06 06:01:26;;;;;;;1.80;1.70;;;21.60;99.90;;;;;;4984427;28;20553;-75
2023/06/06 06:03:53;;;;;;;1.40;1.40;;;22.50;99.90;;;;;;4984367;28;20790;-75
2023/06/06 06:06:20;;;;;;;1.60;1.60;;;23.00;99.90;;;;;;4987771;28;20825;-75
2023/06/06 06:08:49;;;;;;;1.50;1.50;;;23.40;99.90;;;;;;4987093;28;20207;-76
2023/06/06 06:11:16;;;;;;;1.03;1.03;;;23.80;99.90;;;;;;4982022;28;20592;-75
2023/06/06 06:13:43;;;;;;;1.40;1.40;;;23.80;99.90;;;;;;4989979;28;20472;-75
2023/06/06 06:16:09;;;;;;;1.37;1.37;;;24.00;99.90;;;;;;4988208;28;20471;-75
2023/06/06 06:18:38;;;;;;;1.60;1.60;;;24.00;99.90;;;;;;4986118;28;20480;-74
2023/06/06 06:21:05;;;;;;;1.30;1.30;;;24.00;99.90;;;;;;4989646;28;20908;-75
2023/06/06 06:23:32;;;;;;;3.17;1.73;;;24.30;99.90;;;;;;4986906;28;20926;-73
2023/06/06 06:25:58;;;;;;;1.30;1.30;;;24.70;99.30;;;;;;4990347;28;20897;-74
2023/06/06 06:28:26;;;;;;;1.70;1.70;;;25.30;98.70;;;;;;4989120;28;21033;-71
2023/06/06 06:30:53;;;;;;;1.17;1.17;;;25.70;97.50;;;;;;4984806;28;20898;-74
2023/06/06 06:33:23;;;;;;;0.80;0.80;;;26.00;96.80;;;;;;4981977;28;20466;-75
2023/06/06 06:35:51;;;;;;;1.07;1.07;;;26.30;95.50;;;;;;4987417;28;20479;-75
2023/06/06 06:38:17;;;;;;;0.93;0.93;;;26.70;95.40;;;;;;4996905;28;20569;-74
2023/06/06 06:40:44;;;;;;;1.17;1.10;;;26.30;95.10;;;;;;4992011;28;20498;-73
2023/06/06 06:43:11;;;;;;;1.27;1.27;;;26.70;94.80;;;;;;4994497;28;20486;-73
2023/06/06 06:45:37;;;;;;;1.00;1.00;;;26.90;93.30;;;;;;4994301;28;20482;-74
2023/06/06 06:48:05;;;;;;;1.60;1.60;;;26.20;93.90;;;;;;4994119;28;20466;-74
2023/06/06 06:50:31;;;;;;;0.80;0.80;;;26.30;94.00;;;;;;4993472;28;20876;-75
2023/06/06 06:53:02;;;;;;;1.00;1.00;;;26.30;94.20;;;;;;4988304;28;20490;-74
2023/06/06 06:55:28;;;;;;;1.10;1.10;;;26.70;93.30;;;;;;4991565;28;20489;-74
2023/06/06 06:57:56;;;;;;;0.93;0.93;;;27.20;92.30;;;;;;4994513;28;20459;-74
2023/06/06 07:00:23;;;;;;;1.00;0.97;;;27.50;92.00;;;;;;4992971;28;20528;-75
2023/06/06 07:02:53;;;;;;;1.10;1.10;;;27.80;91.00;;;;;;4986859;28;20471;-72
2023/06/06 07:05:20;;;;;;;0.60;0.60;;;27.50;91.30;;;;;;4989787;28;20482;-73
2023/06/06 07:07:48;;;;;;;1.00;1.00;;;27.20;91.70;;;;;;4983397;28;20608;-75
2023/06/06 07:10:17;;;;;;;0.80;0.80;;;27.70;91.30;;;;;;4987986;28;20467;-73
2023/06/06 07:12:48;;;;;;;0.67;0.67;;;28.00;90.30;;;;;;4990744;28;20474;-74
2023/06/06 07:15:15;;;;;;;1.17;1.17;;;28.30;87.90;;;;;;4993941;28;20488;-72
2023/06/06 07:17:46;;;;;;;1.20;1.10;;;29.00;85.70;;;;;;4993740;28;20458;-72
2023/06/06 07:20:13;;;;;;;0.80;0.80;;;28.80;82.30;;;;;;4991946;28;20472;-72
2023/06/06 07:22:40;;;;;;;0.70;0.70;;;28.80;81.00;;;;;;4991788;28;21014;-72
2023/06/06 07:25:08;;;;;;;0.60;0.60;;;28.70;80.70;;;;;;4986649;28;20467;-73
2023/06/06 07:27:38;;;;;;;0.60;0.60;;;28.40;80.20;;;;;;4987080;28;20521;-73
2023/06/06 07:30:06;;;;;;;1.00;1.00;;;28.30;79.70;;;;;;4993092;28;20463;-73
2023/06/06 07:32:34;;;;;;;0.82;0.82;;;28.60;78.80;;;;;;4993041;28;20612;-73
2023/06/06 07:35:01;;;;;;;0.87;0.87;;;28.60;78.40;;;;;;4993973;28;20208;-73
2023/06/06 07:37:28;;;;;;;0.70;0.70;;;28.40;78.40;;;;;;4992006;28;20486;-73
2023/06/06 07:39:54;;;;;;;0.90;0.90;;;28.00;79.70;;;;;;4988181;28;20475;-73
2023/06/06 07:42:21;;;;;;;0.73;0.73;;;28.30;79.60;;;;;;4985666;28;20488;-73
2023/06/06 07:44:51;;;;;;;1.10;1.10;;;28.90;78.10;;;;;;4993078;28;20530;-72
2023/06/06 07:47:17;;;;;;;0.90;0.90;;;28.40;77.50;;;;;;4991500;28;20564;-73
2023/06/06 07:49:45;;;;;;;0.70;0.70;;;28.50;76.80;;;;;;4991450;28;20466;-72
2023/06/06 07:52:12;;;;;;;1.53;0.90;;;28.40;77.50;;;;;;4989526;28;20880;-71
2023/06/06 07:54:40;;;;;;;0.90;0.90;;;28.60;76.80;;;;;;4991677;28;20531;-73
2023/06/06 07:57:09;;;;;;;0.90;0.90;;;28.60;77.00;;;;;;4985496;28;20475;-73
2023/06/06 07:59:36;;;;;;;1.17;1.17;;;28.60;77.50;;;;;;4982877;28;20517;-73
2023/06/06 08:02:05;;;;;;;0.60;0.60;;;28.80;76.20;;;;;;4986256;28;20556;-73
2023/06/06 08:04:31;;;;;;;0.90;0.90;;;28.90;75.90;;;;;;4991639;28;20502;-73
2023/06/06 08:06:58;;;;;;;1.00;1.00;;;28.30;76.60;;;;;;4988882;28;20576;-74
2023/06/06 08:09:25;;;;;;;0.87;0.87;;;28.20;77.10;;;;;;4991783;28;20522;-72
2023/06/06 08:11:52;;;;;;;0.87;0.87;;;28.20;75.80;;;;;;4989070;28;20490;-74
2023/06/06 08:14:20;;;;;;;0.70;0.70;;;28.40;76.70;;;;;;4992624;28;20803;-77
2023/06/06 08:16:46;;;;;;;1.30;1.30;;;28.40;76.00;;;;;;4993758;28;20459;-74
2023/06/06 08:19:15;;;;;;;0.90;0.90;;;28.40;75.80;;;;;;4994562;28;20468;-73
2023/06/06 08:21:41;;;;;;;0.73;0.73;;;27.80;76.00;;;;;;4991984;28;20495;-74
2023/06/06 08:24:08;;;;;;;0.90;0.90;;;28.10;76.90;;;;;;4991565;28;20466;-74
2023/06/06 08:26:35;;;;;;;0.80;0.80;;;28.00;76.50;;;;;;4991580;28;20490;-74
2023/06/06 08:29:01;;;;;;;1.03;1.03;;;28.00;76.60;;;;;;4994370;28;20463;-74
2023/06/06 08:31:29;;;;;;;0.80;0.80;;;27.60;75.30;;;;;;4997928;28;20486;-74
2023/06/06 08:33:56;;;;;;;1.20;1.20;;;27.70;76.90;;;;;;4993042;28;20501;-74
2023/06/06 08:36:25;;;;;;;0.80;0.80;;;27.70;75.90;;;;;;4990069;28;20470;-75
2023/06/06 08:38:52;;;;;;;1.30;1.30;;;26.80;77.20;;;;;;4984473;28;20533;-74
2023/06/06 08:41:20;;;;;;;1.20;1.20;;;26.70;77.60;;;;;;4992903;28;20478;-76
2023/06/06 08:43:47;;;;;;;1.03;1.03;;;26.70;79.30;;;;;;4991919;28;20853;-75
2023/06/06 08:46:15;;;;;;;0.90;0.90;;;26.80;77.60;;;;;;4992714;28;20491;-76
2023/06/06 08:48:44;;;;;;;1.27;1.27;;;26.70;77.20;;;;;;4990303;28;20498;-76
2023/06/06 08:51:13;;;;;;;1.10;1.10;;;26.30;78.10;;;;;;4984730;28;20486;-76
2023/06/06 08:53:44;;;;;;;1.00;1.00;;;26.50;77.90;;;;;;4991932;28;20467;-77
2023/06/06 08:56:12;;;;;;;1.13;0.80;;;26.20;77.80;;;;;;4975481;28;20466;-74
2023/06/06 08:58:41;;;;;;;1.30;1.30;;;26.30;78.00;;;;;;4973041;28;20563;-74
2023/06/06 09:01:08;;;;;;;1.43;1.43;;;26.70;77.10;;;;;;4991591;28;20487;-77
2023/06/06 09:03:43;;;;;;;1.00;1.00;;;26.80;78.50;;;;;;4991649;28;20470;-76
2023/06/06 09:06:11;;;;;;;0.93;0.93;;;26.60;78.40;;;;;;4992319;28;20481;-76
2023/06/06 09:08:38;;;;;;;0.73;0.73;;;26.60;78.30;;;;;;4987772;28;20971;-76
2023/06/06 09:11:06;;;;;;;1.70;0.97;;;26.40;78.00;;;;;;4990244;28;20907;-75
2023/06/06 09:13:33;;;;;;;1.20;1.10;;;26.20;78.30;;;;;;4985602;28;20477;-74
2023/06/06 09:16:00;;;;;;;1.43;1.43;;;26.20;79.60;;;;;;4988176;28;20474;-76
2023/06/06 09:18:28;;;;;;;3.10;1.27;;;25.90;78.60;;;;;;4974369;28;20499;-76
2023/06/06 09:20:56;;;;;;;1.20;1.20;;;25.70;78.20;;;;;;4983339;28;20541;-77
2023/06/06 09:23:23;;;;;;;1.13;1.03;;;25.30;79.90;;;;;;4991354;28;20812;-75
2023/06/06 09:25:50;;;;;;;1.03;1.03;;;25.00;82.30;;;;;;4990317;28;20462;-74
2023/06/06 09:28:18;;;;;;;1.70;1.67;;;25.10;82.70;;;;;;4972980;28;20546;-74
2023/06/06 09:30:44;;;;;;;1.27;1.20;;;25.10;82.00;;;;;;4986281;28;20936;-75
2023/06/06 09:33:15;;;;;;;1.30;1.30;;;25.40;80.60;;;;;;4989392;28;20472;-77
2023/06/06 09:35:43;;;;;;;2.00;1.47;;;25.30;80.20;;;;;;4990255;28;20554;-75
2023/06/06 09:38:15;;;;;;;1.43;1.00;;;25.40;80.20;;;;;;4990542;28;20505;-74
2023/06/06 09:40:46;;;;;;;1.00;1.00;;;25.40;81.40;;;;;;4989909;28;20516;-74
2023/06/06 09:43:13;;;;;;;1.03;1.03;;;25.20;81.40;;;;;;4988845;28;20479;-74
2023/06/06 09:45:50;;;;;;;1.63;1.60;;;25.20;81.30;;;;;;4986396;28;20474;-75
2023/06/06 09:48:21;;;;;;;1.50;1.50;;;25.30;81.50;;;;;;4991836;28;20504;-75
2023/06/06 09:50:48;;;;;;;1.63;1.53;;;25.20;79.00;;;;;;4996189;28;20560;-75
2023/06/06 09:53:15;;;;;;;1.03;1.03;;;25.10;79.90;;;;;;4988878;28;20466;-75
2023/06/06 09:55:43;;;;;;;1.83;1.40;;;25.10;80.40;;;;;;4980448;28;20471;-76
2023/06/06 09:58:11;;;;;;;3.03;0.90;;;25.10;79.70;;;;;;4980987;28;20463;-74
2023/06/06 10:00:38;;;;;;;1.23;1.23;;;25.10;80.80;;;;;;4981508;28;20985;-75
2023/06/06 10:03:08;;;;;;;0.97;0.97;;;25.30;82.00;;;;;;4989967;28;20785;-75
2023/06/06 10:05:37;;;;;;;1.10;1.07;;;25.30;80.00;;;;;;4989760;28;20967;-74
2023/06/06 10:08:09;;;;;;;1.13;1.13;;;24.90;81.20;;;;;;4989218;28;20481;-74
2023/06/06 10:10:36;;;;;;;1.80;1.13;;;25.00;81.80;;;;;;4988221;28;21014;-75
2023/06/06 10:13:04;;;;;;;1.20;1.20;;;25.20;82.40;;;;;;4993422;28;20505;-74
2023/06/06 10:15:31;;;;;;;0.83;0.83;;;25.30;82.00;;;;;;4986311;28;20471;-76
2023/06/06 10:17:59;;;;;;;0.90;0.90;;;25.30;81.30;;;;;;5009495;23;20512;-71
2023/06/06 10:20:27;;;;;;;1.70;1.60;;;25.30;79.20;;;;;;4995411;28;20451;-70
2023/06/06 10:22:54;;;;;;;1.20;1.20;;;25.40;78.60;;;;;;4994031;28;20464;-70
2023/06/06 10:25:21;;;;;;;1.63;1.63;;;25.40;78.80;;;;;;4993073;28;20472;-71
2023/06/06 10:27:54;;;;;;;0.93;0.93;;;25.30;78.80;;;;;;4972927;28;20496;-71
2023/06/06 10:30:35;;;;;;;1.80;1.10;;;25.30;79.20;;;;;;4975288;28;20460;-72
2023/06/06 10:33:21;;;;;;;1.10;1.10;;;25.40;79.40;;;;;;4961292;28;20468;-71
2023/06/06 10:35:55;;;;;;;1.27;1.27;;;25.30;76.70;;;;;;4971460;28;20481;-71
2023/06/06 10:38:21;;;;;;;1.73;1.63;;;25.30;78.00;;;;;;4973037;28;20527;-71
2023/06/06 10:40:52;;;;;;;1.07;1.07;;;25.10;78.40;;;;;;4969820;28;20961;-71
2023/06/06 10:43:55;;;;;;;1.37;1.37;;;25.00;79.00;;;;;;4973788;28;20475;-72
2023/06/06 10:46:22;;;;;;;1.20;1.20;;;25.00;77.90;;;;;;4974354;28;20491;-70
2023/06/06 10:48:55;;;;;;;1.27;1.10;;;25.00;78.10;;;;;;4971655;28;20546;-70
2023/06/06 10:51:32;;;;;;;1.77;1.67;;;25.00;77.20;;;;;;4969401;28;20479;-70
2023/06/06 10:54:14;;;;;;;1.93;1.83;;;25.10;76.70;;;;;;4974237;28;20463;-70
2023/06/06 10:56:44;;;;;;;1.30;1.20;;;25.30;77.80;;;;;;4973215;28;20907;-70
2023/06/06 10:59:11;;;;;;;1.40;1.40;;;25.40;77.50;;;;;;4973975;28;20481;-70
2023/06/06 11:01:41;;;;;;;1.23;1.23;;;25.60;78.10;;;;;;4973349;28;20499;-70
2023/06/06 11:04:17;;;;;;;1.60;1.60;;;25.60;78.00;;;;;;4970031;28;21036;-70
2023/06/06 11:06:46;;;;;;;1.60;1.50;;;25.60;78.40;;;;;;4967858;28;20576;-70
2023/06/06 11:09:19;;;;;;;1.40;1.23;;;25.60;76.60;;;;;;4971985;28;20832;-70
2023/06/06 11:11:46;;;;;;;1.43;1.43;;;25.70;76.60;;;;;;4972363;28;20832;-70
2023/06/06 11:14:13;;;;;;;1.17;1.17;;;25.80;75.80;;;;;;4973845;28;20477;-70
2023/06/06 11:17:00;;;;;;;1.37;1.37;;;25.80;74.80;;;;;;4973433;28;20501;-70
2023/06/06 11:19:37;;;;;;;1.40;1.40;;;25.90;74.80;;;;;;4966946;28;20554;-70
2023/06/06 11:22:05;;;;;;;1.40;1.40;;;25.90;74.50;;;;;;4971015;28;20462;-70
2023/06/06 11:24:37;;;;;;;1.57;1.57;;;26.00;75.70;;;;;;4972656;28;20456;-70
2023/06/06 11:27:06;;;;;;;1.10;1.03;;;26.10;75.20;;;;;;4968024;28;20938;-70
2023/06/06 11:29:34;;;;;;;1.27;1.27;;;26.20;75.20;;;;;;4972974;28;20463;-70
2023/06/06 11:32:00;;;;;;;1.57;1.57;;;26.00;74.40;;;;;;4973743;28;20541;-70
2023/06/06 11:34:27;;;;;;;1.20;1.20;;;25.80;74.00;;;;;;4965900;28;20463;-70
2023/06/06 11:36:54;;;;;;;1.23;1.23;;;25.60;74.40;;;;;;4968376;28;20570;-70
2023/06/06 11:39:28;;;;;;;2.10;1.10;;;25.40;74.40;;;;;;4965821;28;20922;-71
2023/06/06 11:41:56;;;;;;;1.50;1.03;;;25.40;75.40;;;;;;4967423;28;20853;-71
2023/06/06 11:44:31;;;;;;;1.47;1.47;;;25.60;75.00;;;;;;4955680;28;20496;-71
2023/06/06 11:46:58;;;;;;;1.30;1.30;;;25.50;74.40;;;;;;4971982;28;20916;-71
2023/06/06 11:49:25;;;;;;;1.07;1.07;;;25.60;74.60;;;;;;4967673;28;20499;-71
2023/06/06 11:51:56;;;;;;;1.30;1.30;;;25.60;72.70;;;;;;4968530;28;20901;-71
2023/06/06 11:54:24;;;;;;;1.30;1.30;;;25.80;73.50;;;;;;4971302;28;20483;-71
2023/06/06 11:56:52;;;;;;;1.40;1.40;;;26.10;68.30;;;;;;4971648;28;20496;-71
2023/06/06 11:59:19;;;;;;;1.20;1.20;;;26.40;65.50;;;;;;4965913;28;20994;-71
2023/06/06 12:01:50;;;;;;;1.20;1.20;;;26.50;67.40;;;;;;4971300;28;20464;-69
2023/06/06 12:04:18;;;;;;;1.30;1.30;;;26.50;72.20;;;;;;4972368;28;20523;-70
2023/06/06 12:06:47;;;;;;;1.30;1.23;;;26.40;70.60;;;;;;4970667;28;20493;-70
2023/06/06 12:09:16;;;;;;;1.20;1.20;;;26.20;73.10;;;;;;4967619;28;20490;-70
2023/06/06 12:11:55;;;;;;;0.73;0.73;;;26.30;73.20;;;;;;4967150;28;20476;-69
2023/06/06 12:14:23;;;;;;;1.03;1.03;;;26.10;74.20;;;;;;4973088;28;20486;-69
2023/06/06 12:16:49;;;;;;;1.97;1.73;;;25.80;73.20;;;;;;4972819;28;20499;-69
2023/06/06 12:19:17;;;;;;;1.10;1.10;;;25.60;73.90;;;;;;4972864;28;20509;-70
2023/06/06 12:21:46;;;;;;;0.90;0.87;;;25.50;71.80;;;;;;4973217;28;20545;-70
2023/06/06 12:24:19;;;;;;;1.30;1.30;;;25.40;72.50;;;;;;4971890;28;20617;-69
2023/06/06 12:26:53;;;;;;;1.20;1.20;;;25.40;68.60;;;;;;4968349;28;20835;-71
2023/06/06 12:29:21;;;;;;;1.10;1.10;;;25.60;67.80;;;;;;4972725;28;20513;-69
2023/06/06 12:31:50;;;;;;;1.30;1.20;;;26.00;69.30;;;;;;4967650;28;20475;-70
2023/06/06 12:34:17;;;;;;;1.40;1.40;;;26.20;70.60;;;;;;4970755;28;20561;-70
2023/06/06 12:36:44;;;;;;;1.47;1.47;;;26.30;71.10;;;;;;4972673;28;20605;-70
2023/06/06 12:39:13;;;;;;;0.80;0.80;;;26.40;71.70;;;;;;4971767;28;20463;-70
2023/06/06 12:41:42;;;;;;;1.33;1.33;;;26.10;70.70;;;;;;4970866;28;20530;-70
2023/06/06 12:44:11;;;;;;;0.87;0.87;;;26.00;71.10;;;;;;4971527;28;20586;-70
2023/06/06 12:46:39;;;;;;;1.43;1.43;;;26.20;70.80;;;;;;4964385;28;20487;-70
2023/06/06 12:49:06;;;;;;;1.37;1.37;;;26.50;70.80;;;;;;4969539;28;20491;-68
2023/06/06 12:51:33;;;;;;;1.20;1.20;;;26.70;69.90;;;;;;4967232;28;20476;-71
2023/06/06 12:54:00;;;;;;;1.90;1.80;;;26.80;70.10;;;;;;4970285;28;20476;-71
2023/06/06 12:56:28;;;;;;;1.10;1.10;;;26.80;70.60;;;;;;4972141;28;20562;-71
2023/06/06 12:58:56;;;;;;;1.40;1.40;;;26.50;69.70;;;;;;4972636;28;20466;-71
2023/06/06 13:01:23;;;;;;;1.30;1.30;;;26.20;70.20;;;;;;4969145;28;20533;-71
2023/06/06 13:03:51;;;;;;;1.30;1.30;;;26.20;71.70;;;;;;4971624;28;20467;-70
2023/06/06 13:06:18;;;;;;;1.43;1.33;;;26.00;70.80;;;;;;4962683;28;20516;-70
2023/06/06 13:08:45;;;;;;;1.30;1.30;;;25.90;71.80;;;;;;4971182;28;20991;-71
2023/06/06 13:11:12;;;;;;;1.30;1.30;;;26.00;70.80;;;;;;4968729;28;20474;-70
2023/06/06 13:13:40;;;;;;;1.40;1.40;;;25.90;70.60;;;;;;4971601;28;20463;-71
2023/06/06 13:16:07;;;;;;;1.10;1.10;;;26.00;71.60;;;;;;4971489;28;20874;-71
2023/06/06 13:18:35;;;;;;;1.33;1.33;;;26.10;70.30;;;;;;4969889;28;20507;-69
2023/06/06 13:21:03;;;;;;;1.37;1.37;;;26.40;70.80;;;;;;4969532;28;20986;-70
2023/06/06 13:23:30;;;;;;;1.53;1.53;;;26.60;70.80;;;;;;4971351;28;20913;-70
2023/06/06 13:25:57;;;;;;;1.60;1.60;;;26.70;69.70;;;;;;4967915;28;20877;-70
2023/06/06 13:28:24;;;;;;;1.73;1.70;;;26.60;68.00;;;;;;4971520;28;20515;-70
2023/06/06 13:30:51;;;;;;;1.00;1.00;;;26.70;69.80;;;;;;4965251;28;20553;-70
2023/06/06 13:33:19;;;;;;;1.07;1.07;;;26.80;68.70;;;;;;4968507;28;20487;-70
2023/06/06 13:35:45;;;;;;;1.10;1.10;;;27.00;67.80;;;;;;4963796;28;20832;-70
2023/06/06 13:38:23;;;;;;;1.30;1.30;;;27.10;66.60;;;;;;4960689;28;20852;-70
2023/06/06 13:40:50;;;;;;;1.50;1.50;;;27.30;68.40;;;;;;4964725;28;20504;-71
2023/06/06 13:43:16;;;;;;;1.30;1.30;;;27.50;67.50;;;;;;4970570;28;20474;-70
2023/06/06 13:45:43;;;;;;;1.23;1.23;;;27.50;65.50;;;;;;4965246;28;20469;-70
2023/06/06 13:48:10;;;;;;;1.70;1.70;;;27.60;66.30;;;;;;4967334;28;20537;-70
2023/06/06 13:50:37;;;;;;;2.30;1.47;;;27.60;65.20;;;;;;4968657;28;20481;-70
2023/06/06 13:53:04;;;;;;;1.00;1.00;;;27.50;65.90;;;;;;4969352;28;20529;-71
2023/06/06 13:55:33;;;;;;;1.30;1.30;;;27.40;66.60;;;;;;4970763;28;20509;-70
2023/06/06 13:58:03;;;;;;;1.27;1.27;;;27.20;66.10;;;;;;4970135;28;20513;-70
2023/06/06 14:00:30;;;;;;;1.30;1.30;;;27.00;67.20;;;;;;4963356;28;20466;-70
2023/06/06 14:02:57;;;;;;;1.70;1.70;;;27.00;67.30;;;;;;4968626;28;20557;-71
2023/06/06 14:05:24;;;;;;;2.23;1.13;;;27.10;67.40;;;;;;4971879;28;20521;-70
2023/06/06 14:07:51;;;;;;;10.00;1.50;;;27.10;66.90;;;;;;4958897;28;20587;-70
2023/06/06 14:10:17;;;;;;;1.17;1.17;;;26.60;66.60;;;;;;4968956;28;20482;-70
2023/06/06 14:12:46;;;;;;;1.80;1.70;;;26.20;67.60;;;;;;4969115;28;20471;-70
2023/06/06 14:15:14;;;;;;;1.20;1.20;;;25.90;68.90;;;;;;4970253;28;20580;-70
2023/06/06 14:17:41;;;;;;;1.20;1.20;;;25.90;68.40;;;;;;4966516;28;20551;-71
2023/06/06 14:20:11;;;;;;;2.77;0.93;;;25.90;68.70;;;;;;4970330;28;20469;-70
2023/06/06 14:22:39;;;;;;;1.87;1.77;;;25.90;68.80;;;;;;4968509;28;20992;-70
2023/06/06 14:25:07;;;;;;;1.10;1.10;;;26.00;68.70;;;;;;4970551;28;20474;-71
2023/06/06 14:27:34;;;;;;;1.30;1.30;;;26.10;68.30;;;;;;4970255;28;20484;-70
2023/06/06 14:30:02;;;;;;;1.07;1.07;;;26.10;68.00;;;;;;4969609;28;20476;-70
2023/06/06 14:32:30;;;;;;;0.93;0.93;;;26.10;69.10;;;;;;4960595;28;20470;-70
2023/06/06 14:34:58;;;;;;;1.20;1.20;;;26.20;68.70;;;;;;4967310;28;21011;-72
2023/06/06 14:37:25;;;;;;;1.60;1.60;;;26.10;68.50;;;;;;4968395;28;21064;-70
2023/06/06 14:39:51;;;;;;;1.27;1.27;;;26.00;69.60;;;;;;4965544;28;20549;-70
2023/06/06 14:42:18;;;;;;;1.87;1.60;;;26.10;69.10;;;;;;4964341;28;20469;-71
2023/06/06 14:44:45;;;;;;;1.83;1.20;;;26.30;68.90;;;;;;4970101;28;20992;-72
2023/06/06 14:47:13;;;;;;;2.00;1.50;;;26.60;69.20;;;;;;4965396;28;20588;-70
2023/06/06 14:49:41;;;;;;;1.50;1.50;;;26.80;67.70;;;;;;4967457;28;20514;-70
2023/06/06 14:52:08;;;;;;;1.00;1.00;;;27.00;68.20;;;;;;4968927;28;20471;-70
2023/06/06 14:54:36;;;;;;;1.40;1.40;;;27.20;67.00;;;;;;4972315;28;20465;-70
2023/06/06 14:57:03;;;;;;;1.47;1.47;;;27.40;64.90;;;;;;4971185;28;20491;-70
2023/06/06 14:59:30;;;;;;;1.27;1.27;;;27.50;64.80;;;;;;4966179;28;20543;-70
2023/06/06 15:01:57;;;;;;;2.10;2.00;;;27.50;65.20;;;;;;4959669;28;20495;-70
2023/06/06 15:04:27;;;;;;;2.87;1.50;;;27.70;66.00;;;;;;4973936;28;21117;-71
2023/06/06 15:06:53;;;;;;;1.30;1.30;;;28.00;65.90;;;;;;4974521;28;20488;-71
2023/06/06 15:09:20;;;;;;;1.60;1.50;;;28.10;64.70;;;;;;4972394;28;20563;-71
2023/06/06 15:11:48;;;;;;;1.60;1.50;;;28.10;63.60;;;;;;4970087;28;20962;-71
2023/06/06 15:14:15;;;;;;;2.87;1.37;;;28.00;64.60;;;;;;4970793;28;20460;-71
2023/06/06 15:16:42;;;;;;;2.47;1.60;;;28.10;65.00;;;;;;4966043;28;20560;-71
2023/06/06 15:19:09;;;;;;;0.90;0.90;;;28.10;64.80;;;;;;4971106;28;20469;-71
2023/06/06 15:21:38;;;;;;;1.60;1.60;;;28.10;64.20;;;;;;4973189;28;21002;-71
2023/06/06 15:24:06;;;;;;;1.50;1.50;;;28.10;63.30;;;;;;4973086;28;20498;-71
2023/06/06 15:26:33;;;;;;;1.13;1.13;;;28.20;63.30;;;;;;4969366;28;20484;-71
2023/06/06 15:29:00;;;;;;;1.50;1.10;;;27.90;63.80;;;;;;4958647;28;20493;-70
2023/06/06 15:31:27;;;;;;;1.10;1.10;;;27.80;64.80;;;;;;4966357;28;20471;-71
2023/06/06 15:33:53;;;;;;;1.10;1.00;;;27.70;63.80;;;;;;4971571;28;20925;-70
2023/06/06 15:36:20;;;;;;;1.30;1.30;;;27.60;63.30;;;;;;4973568;28;20514;-70
2023/06/06 15:38:48;;;;;;;1.40;1.40;;;27.60;63.30;;;;;;4971543;28;20957;-71
2023/06/06 15:41:18;;;;;;;1.47;1.47;;;27.50;63.90;;;;;;4974276;28;20522;-71
2023/06/06 15:43:44;;;;;;;1.10;1.10;;;27.50;63.70;;;;;;4971761;28;20483;-71
2023/06/06 15:46:11;;;;;;;1.60;1.47;;;27.40;62.90;;;;;;4973763;28;20961;-71
2023/06/06 15:48:37;;;;;;;1.43;1.43;;;27.50;63.90;;;;;;4969031;28;21016;-71
2023/06/06 15:51:04;;;;;;;1.20;1.20;;;27.60;63.10;;;;;;4968013;28;20467;-71
2023/06/06 15:53:31;;;;;;;1.20;1.20;;;27.60;62.10;;;;;;4959284;28;20469;-71
2023/06/06 15:55:59;;;;;;;1.60;1.60;;;27.70;62.90;;;;;;4967934;28;20836;-71
2023/06/06 15:58:26;;;;;;;1.40;1.40;;;27.70;62.00;;;;;;4972787;28;20810;-71
2023/06/06 16:00:53;;;;;;;1.13;1.10;;;27.60;62.80;;;;;;4964243;28;20944;-71
2023/06/06 16:03:19;;;;;;;1.50;1.50;;;27.30;63.70;;;;;;4967898;28;20527;-71
2023/06/06 16:05:46;;;;;;;1.70;1.70;;;27.10;65.90;;;;;;4970127;28;20467;-71
2023/06/06 16:08:13;;;;;;;1.67;1.40;;;27.10;65.40;;;;;;4970854;28;20489;-70
2023/06/06 16:10:40;;;;;;;1.47;1.47;;;27.20;66.00;;;;;;4972242;28;20535;-71
2023/06/06 16:13:08;;;;;;;1.50;1.50;;;27.30;63.80;;;;;;4966005;28;20839;-71
2023/06/06 16:15:36;;;;;;;1.30;1.30;;;27.50;64.50;;;;;;4969433;28;20546;-71
2023/06/06 16:18:02;;;;;;;1.53;1.53;;;27.50;65.30;;;;;;4973197;28;20487;-71
2023/06/06 16:20:29;;;;;;;1.60;1.50;;;27.60;65.70;;;;;;4972066;28;20478;-71
2023/06/06 16:22:56;;;;;;;1.37;1.37;;;27.60;66.20;;;;;;4971545;28;20468;-71
2023/06/06 16:25:22;;;;;;;1.20;1.20;;;27.70;65.20;;;;;;4971450;28;20468;-71
2023/06/06 16:27:49;;;;;;;1.40;1.40;;;27.60;65.70;;;;;;4971652;28;20908;-71
2023/06/06 16:30:17;;;;;;;1.50;1.40;;;27.50;65.40;;;;;;4973155;28;20567;-71
2023/06/06 16:32:44;;;;;;;1.50;1.50;;;27.50;64.80;;;;;;4970523;28;20543;-71
2023/06/06 16:35:10;;;;;;;1.33;1.33;;;27.30;64.80;;;;;;4972183;28;20569;-71
2023/06/06 16:37:37;;;;;;;1.20;1.20;;;26.90;65.70;;;;;;4970881;28;21073;-70
2023/06/06 16:40:04;;;;;;;1.13;1.13;;;26.60;66.70;;;;;;4969890;28;20468;-71
2023/06/06 16:42:31;;;;;;;1.47;1.47;;;26.50;67.60;;;;;;4968652;28;21038;-71
2023/06/06 16:45:00;;;;;;;1.60;1.60;;;26.30;67.10;;;;;;4974621;28;20483;-71
2023/06/06 16:47:28;;;;;;;1.37;1.37;;;26.30;68.00;;;;;;4970784;28;20592;-70
2023/06/06 16:49:54;;;;;;;3.63;2.23;;;26.30;67.70;;;;;;4970080;28;20490;-70
2023/06/06 16:52:21;;;;;;;1.37;1.23;;;26.40;69.20;;;;;;4971413;28;20521;-69